Astana, Kazakhstan

1:34 AM ALMT on May 23, 2015 (GMT +0600)
Astana | | Change Station
CLOSE
Current Station
Airport
Location: Astana,
Elevation: 1165 ft
Nearby Weather Stations

Elev 1165 ft 51.02 °N, 71.47 °E | Updated 34 minutes ago

Mostly Cloudy
Mostly Cloudy
52 °F
Feels Like 52 °F
N
4
Wind Variable Wind from North

Today
High -- | Low -- °F
--% Chance of Precip.
Yesterday
High -- | Low -- °F
Precip. -- in
5:14 AM 9:08 PM
Waxing Crescent, 23% visible
Pressure 29.77 in
Visibility 6.2 miles
Clouds Scattered Clouds 3300 ft
Mostly Cloudy 8300 ft
Dew Point 46 °F
Humidity 82%
Rainfall 0.00 in
Snow Depth Not available.
UV 0 out of 12
Pollen Not available.
Air Quality Not available.
Flu Activity Not available.
METAR UACC 221900Z 35002MPS 9999 SCT033 BKN083 11/08 Q1008 R04/1/0065 NOSIG RMK QFE725/0966

More Conditions Fewer Conditions

Pressure 29.77 in
Visibility 6.2 miles
Clouds Scattered Clouds 3300 ft
Mostly Cloudy 8300 ft
Dew Point 46 °F
Humidity 82%
Rainfall 0.00 in
Snow Depth Not available.
UV 0 out of 12
Pollen Not available.
Air Quality Not available.
Flu Activity Not available.
METAR UACC 221900Z 35002MPS 9999 SCT033 BKN083 11/08 Q1008 R04/1/0065 NOSIG RMK QFE725/0966

More Conditions Fewer Conditions

10-Day Weather Forecast

Almanac

Astronomy

May. 23, 2015 Rise Set
Actual Time
Civil Twilight
Nautical Twilight
Astronomical Twilight
Moon
Length of Visible Light
Length of Day
Tomorrow will be .
, % of the Moon is Illuminated

Today's Extremes

Country Highs Country Lows

Community

WunderPhotos

Upload Photos

1,823,274 photos uploaded!

WunderBlogs® & News

Nearby

Air Quality

  Air Quality AQ Index Pollutant
Not available.

Snow Depth

Station Depth Elevation

Earthquake Activity

City Distance Mag. Time & Date
Minimum magnitude displayed is 2.5.

Coastal Water Temperatures

Place Temperature

Stations

Nearby Weather Stations

Station Location Temp. Windchill Dew Point Humidity Wind Precip. Elev Updated Type